createdAt,value
2022-09-20T00:00:07.617Z,7.56
2022-09-20T00:01:02.673Z,7.56
2022-09-20T00:01:57.730Z,7.57
2022-09-20T00:02:52.818Z,7.56
2022-09-20T00:03:47.939Z,7.57
2022-09-20T00:04:43.088Z,7.56
2022-09-20T00:05:38.037Z,7.55
2022-09-20T00:06:33.127Z,7.56
2022-09-20T00:07:28.177Z,7.57
2022-09-20T00:08:23.202Z,7.55
2022-09-20T00:09:18.251Z,7.54
2022-09-20T00:10:13.323Z,7.52
2022-09-20T00:11:08.488Z,7.49
2022-09-20T00:12:03.700Z,7.46
2022-09-20T00:12:58.775Z,7.46
2022-09-20T00:13:54.011Z,7.47
2022-09-20T00:14:49.246Z,7.46
2022-09-20T00:15:45.221Z,7.45
2022-09-20T00:16:40.385Z,7.44
2022-09-20T00:17:35.599Z,7.42
2022-09-20T00:18:31.995Z,7.41
2022-09-20T00:19:27.091Z,7.40
2022-09-20T00:20:22.885Z,7.38
2022-09-20T00:21:18.083Z,7.35
2022-09-20T00:22:13.322Z,7.33
2022-09-20T00:23:08.992Z,7.32
2022-09-20T00:24:04.245Z,7.31
2022-09-20T00:25:00.091Z,7.32
2022-09-20T00:25:55.142Z,7.31
2022-09-20T00:26:50.533Z,7.30
2022-09-20T00:27:46.203Z,7.31
2022-09-20T00:28:41.471Z,7.31
2022-09-20T00:29:36.558Z,7.28
2022-09-20T00:30:33.016Z,7.24
2022-09-20T00:31:28.351Z,7.22
2022-09-20T00:32:24.128Z,7.20
2022-09-20T00:33:19.320Z,7.19
2022-09-20T00:34:14.447Z,7.19
2022-09-20T00:35:10.238Z,7.21
2022-09-20T00:36:05.368Z,7.23
2022-09-20T00:37:01.145Z,7.23
2022-09-20T00:37:56.364Z,7.21
2022-09-20T00:38:51.645Z,7.20
2022-09-20T00:39:47.414Z,7.15
2022-09-20T00:40:42.705Z,7.13
2022-09-20T00:41:37.700Z,7.10
2022-09-20T00:42:34.307Z,7.08
2022-09-20T00:43:29.563Z,7.10
2022-09-20T00:44:25.373Z,7.21
2022-09-20T00:45:20.454Z,7.24
2022-09-20T00:46:15.758Z,7.23
2022-09-20T00:47:11.622Z,7.25
2022-09-20T00:48:06.720Z,7.33
2022-09-20T00:49:02.660Z,7.40
2022-09-20T00:49:57.743Z,7.38
2022-09-20T00:50:52.852Z,7.36
2022-09-20T00:51:48.657Z,7.29
2022-09-20T00:52:43.914Z,7.25
2022-09-20T00:53:39.132Z,7.25
2022-09-20T00:54:35.481Z,7.22
2022-09-20T00:55:30.703Z,7.15
2022-09-20T00:56:26.517Z,7.09
2022-09-20T00:57:21.706Z,7.06
2022-09-20T00:58:16.975Z,6.99
2022-09-20T00:59:12.644Z,6.90
2022-09-20T01:00:07.887Z,6.84
2022-09-20T01:01:03.802Z,6.87
2022-09-20T01:01:58.917Z,6.90
2022-09-20T01:02:54.303Z,6.91
2022-09-20T01:03:49.824Z,6.91
2022-09-20T01:04:45.045Z,6.89
2022-09-20T01:05:40.135Z,6.87
2022-09-20T01:06:36.575Z,6.90
2022-09-20T01:07:31.844Z,6.88
2022-09-20T01:08:27.644Z,6.92
2022-09-20T01:09:22.832Z,6.97
2022-09-20T01:10:17.949Z,6.95
2022-09-20T01:11:13.740Z,6.91
2022-09-20T01:12:08.888Z,6.90
2022-09-20T01:13:04.676Z,6.90
2022-09-20T01:13:59.881Z,6.85
2022-09-20T01:14:55.142Z,6.77
2022-09-20T01:15:50.337Z,6.68
2022-09-20T01:16:45.644Z,6.62
2022-09-20T01:17:42.003Z,6.56
2022-09-20T01:18:37.146Z,6.52
2022-09-20T01:19:32.946Z,6.47
2022-09-20T01:20:28.127Z,6.36
2022-09-20T01:21:23.508Z,6.28
2022-09-20T01:22:19.171Z,6.21
2022-09-20T01:23:14.416Z,6.18
2022-09-20T01:24:09.529Z,6.14
2022-09-20T01:25:05.834Z,6.08
2022-09-20T01:26:01.094Z,6.04
2022-09-20T01:26:56.932Z,6.01
2022-09-20T01:27:52.068Z,6.01
2022-09-20T01:28:47.156Z,6.03
2022-09-20T01:29:42.945Z,6.07
2022-09-20T01:30:38.188Z,6.11
2022-09-20T01:31:34.050Z,6.15
2022-09-20T01:32:29.169Z,6.15
2022-09-20T01:33:24.280Z,6.16
2022-09-20T01:34:19.333Z,6.19
2022-09-20T01:35:14.703Z,6.19
2022-09-20T01:36:10.249Z,6.22
2022-09-20T01:37:05.313Z,6.20
2022-09-20T01:38:00.572Z,6.17
2022-09-20T01:38:55.791Z,6.14
2022-09-20T01:39:52.131Z,6.09
2022-09-20T01:40:47.284Z,6.05
2022-09-20T01:41:42.377Z,6.00
2022-09-20T01:42:41.641Z,5.97
2022-09-20T01:43:36.938Z,5.91
2022-09-20T01:44:32.143Z,5.89
2022-09-20T01:45:27.326Z,5.87
2022-09-20T01:46:22.405Z,5.86
2022-09-20T01:47:17.401Z,5.83
2022-09-20T01:48:12.425Z,5.85
2022-09-20T01:49:07.619Z,5.88
2022-09-20T01:50:02.602Z,5.93
2022-09-20T01:50:57.795Z,6.06
2022-09-20T01:51:52.941Z,6.12
2022-09-20T01:52:48.123Z,6.15
2022-09-20T01:53:43.209Z,6.14
2022-09-20T01:54:38.210Z,6.17
2022-09-20T01:55:33.253Z,6.24
2022-09-20T01:56:28.364Z,6.32
2022-09-20T01:57:27.191Z,6.38
2022-09-20T01:58:18.471Z,6.43
2022-09-20T01:59:23.725Z,6.49
2022-09-20T02:00:09.693Z,6.51
2022-09-20T02:01:03.826Z,6.53
2022-09-20T02:01:58.882Z,6.51
2022-09-20T02:02:53.922Z,6.51
2022-09-20T02:03:49.040Z,6.51
2022-09-20T02:04:44.027Z,6.45
2022-09-20T02:05:39.136Z,6.43
2022-09-20T02:06:34.221Z,6.43
2022-09-20T02:07:31.084Z,6.45
2022-09-20T02:08:26.177Z,6.47
2022-09-20T02:09:21.290Z,6.47
2022-09-20T02:10:16.290Z,6.49
2022-09-20T02:11:11.344Z,6.51
2022-09-20T02:12:06.288Z,6.52
2022-09-20T02:13:01.288Z,6.53
2022-09-20T02:13:56.426Z,6.53
2022-09-20T02:14:51.432Z,6.55
2022-09-20T02:15:46.403Z,6.56
2022-09-20T02:16:41.565Z,6.55
2022-09-20T02:17:36.523Z,6.51
2022-09-20T02:18:31.637Z,6.49
2022-09-20T02:19:26.716Z,6.50
2022-09-20T02:20:21.824Z,6.52
2022-09-20T02:21:17.645Z,6.53
2022-09-20T02:22:12.876Z,6.53
2022-09-20T02:23:08.893Z,6.54
2022-09-20T02:24:03.831Z,6.56
2022-09-20T02:24:59.079Z,6.57
2022-09-20T02:25:54.886Z,6.57
2022-09-20T02:26:50.111Z,6.58
2022-09-20T02:27:45.442Z,6.55
2022-09-20T02:28:41.571Z,6.51
2022-09-20T02:29:36.669Z,6.49
2022-09-20T02:30:32.508Z,6.47
2022-09-20T02:31:27.622Z,6.56
2022-09-20T02:32:22.988Z,6.65
2022-09-20T02:33:18.653Z,6.69
2022-09-20T02:34:14.070Z,6.77
2022-09-20T02:35:09.741Z,6.80
2022-09-20T02:36:04.967Z,6.82
2022-09-20T02:37:00.332Z,6.84
2022-09-20T02:37:55.988Z,6.89
2022-09-20T02:38:51.251Z,6.90
2022-09-20T02:39:46.359Z,6.89
2022-09-20T02:40:42.847Z,6.85
2022-09-20T02:41:37.974Z,6.78
2022-09-20T02:42:33.757Z,6.73
2022-09-20T02:43:29.086Z,6.70
2022-09-20T02:44:24.061Z,6.65
2022-09-20T02:45:19.853Z,6.64
2022-09-20T02:46:15.046Z,6.63
2022-09-20T02:47:10.954Z,6.61
2022-09-20T02:48:06.014Z,6.59
2022-09-20T02:49:01.275Z,6.58
2022-09-20T02:49:56.931Z,6.60
2022-09-20T02:50:52.031Z,6.63
2022-09-20T02:51:47.231Z,6.63
2022-09-20T02:52:43.592Z,6.62
2022-09-20T02:53:38.691Z,6.59
2022-09-20T02:54:34.462Z,6.56
2022-09-20T02:55:29.575Z,6.52
2022-09-20T02:56:24.672Z,6.49
2022-09-20T02:57:20.568Z,6.44
2022-09-20T02:58:15.677Z,6.41
2022-09-20T02:59:11.648Z,6.40
2022-09-20T03:00:06.611Z,6.39
2022-09-20T03:01:01.930Z,6.39
2022-09-20T03:01:57.752Z,6.40
2022-09-20T03:02:52.955Z,6.44
2022-09-20T03:03:48.280Z,6.48
2022-09-20T03:04:44.378Z,6.53
2022-09-20T03:05:39.526Z,6.57
2022-09-20T03:06:35.338Z,6.62
2022-09-20T03:07:30.538Z,6.67
2022-09-20T03:08:25.754Z,6.69
2022-09-20T03:09:20.868Z,6.72
2022-09-20T03:10:17.635Z,6.75
2022-09-20T03:11:12.953Z,6.76
2022-09-20T03:12:08.083Z,6.78
2022-09-20T03:13:03.861Z,6.78
2022-09-20T03:13:59.112Z,6.80
2022-09-20T03:14:54.319Z,6.80
2022-09-20T03:15:50.721Z,6.81
2022-09-20T03:16:48.720Z,6.82
2022-09-20T03:17:42.666Z,6.81
2022-09-20T03:18:36.809Z,6.87
2022-09-20T03:19:31.942Z,6.91
2022-09-20T03:20:27.746Z,6.95
2022-09-20T03:21:22.981Z,6.97
2022-09-20T03:22:18.869Z,6.98
2022-09-20T03:23:13.976Z,7.00
2022-09-20T03:24:09.088Z,7.06
2022-09-20T03:25:04.888Z,7.07
2022-09-20T03:26:00.095Z,7.09
2022-09-20T03:26:55.304Z,7.10
2022-09-20T03:27:50.391Z,7.10
2022-09-20T03:28:45.614Z,7.08
2022-09-20T03:29:40.816Z,7.10
2022-09-20T03:30:35.974Z,7.12
2022-09-20T03:31:31.814Z,7.11
2022-09-20T03:32:26.943Z,7.14
2022-09-20T03:33:22.165Z,7.13
2022-09-20T03:34:17.961Z,7.10
2022-09-20T03:35:13.089Z,7.09
2022-09-20T03:36:08.326Z,7.10
2022-09-20T03:37:03.660Z,7.12
2022-09-20T03:37:58.764Z,7.11
2022-09-20T03:38:53.842Z,7.12
2022-09-20T03:39:48.848Z,7.12
2022-09-20T03:40:46.563Z,7.13
2022-09-20T03:41:39.046Z,7.11
2022-09-20T03:42:34.130Z,7.12
2022-09-20T03:43:29.238Z,7.13
2022-09-20T03:44:24.317Z,7.16
2022-09-20T03:45:19.445Z,7.14
2022-09-20T03:46:14.531Z,7.15
2022-09-20T03:47:09.507Z,7.14
2022-09-20T03:48:04.595Z,7.13
2022-09-20T03:48:59.711Z,7.10
2022-09-20T03:49:57.756Z,7.11
2022-09-20T03:50:52.870Z,7.12
2022-09-20T03:51:47.943Z,7.13
2022-09-20T03:52:43.048Z,7.13
2022-09-20T03:53:38.124Z,7.11
2022-09-20T03:54:33.223Z,7.11
2022-09-20T03:55:28.364Z,7.11
2022-09-20T03:56:23.338Z,7.11
2022-09-20T03:57:18.433Z,7.11
2022-09-20T03:58:13.502Z,7.22
2022-09-20T03:59:08.619Z,7.29
2022-09-20T04:00:03.618Z,7.33
2022-09-20T04:00:58.726Z,7.32
2022-09-20T04:01:53.743Z,7.36
2022-09-20T04:02:48.801Z,7.38
2022-09-20T04:03:43.895Z,7.34
2022-09-20T04:04:39.041Z,7.32
2022-09-20T04:05:34.090Z,7.29
2022-09-20T04:06:30.795Z,7.28
2022-09-20T04:07:25.889Z,7.25
2022-09-20T04:08:20.971Z,7.26
2022-09-20T04:09:16.088Z,7.27
2022-09-20T04:10:11.558Z,7.28
2022-09-20T04:11:06.232Z,7.30
2022-09-20T04:12:01.327Z,7.36
2022-09-20T04:12:56.404Z,7.40
2022-09-20T04:13:51.408Z,7.46
2022-09-20T04:14:46.743Z,7.49
2022-09-20T04:15:43.859Z,7.52
2022-09-20T04:16:39.007Z,7.54
2022-09-20T04:17:33.985Z,7.54
2022-09-20T04:18:29.107Z,7.51
2022-09-20T04:19:24.154Z,7.43
2022-09-20T04:20:19.231Z,7.36
2022-09-20T04:21:14.333Z,7.31
2022-09-20T04:22:09.340Z,7.26
2022-09-20T04:23:04.325Z,7.23
2022-09-20T04:23:59.432Z,7.21
2022-09-20T04:24:54.696Z,7.19
2022-09-20T04:25:49.582Z,7.17
2022-09-20T04:26:44.588Z,7.17
2022-09-20T04:27:44.133Z,7.19
2022-09-20T04:28:39.207Z,7.20
2022-09-20T04:29:34.392Z,7.25
2022-09-20T04:30:29.510Z,7.30
2022-09-20T04:31:24.546Z,7.33
2022-09-20T04:32:19.639Z,7.33
2022-09-20T04:33:14.606Z,7.33
2022-09-20T04:34:09.599Z,7.34
2022-09-20T04:35:04.614Z,7.36
2022-09-20T04:35:59.696Z,7.34
2022-09-20T04:36:54.687Z,7.32
2022-09-20T04:37:49.676Z,7.29
2022-09-20T04:38:44.700Z,7.28
2022-09-20T04:39:39.776Z,7.28
2022-09-20T04:40:35.044Z,7.27
2022-09-20T04:41:32.466Z,7.26
2022-09-20T04:42:25.956Z,7.26
2022-09-20T04:43:21.785Z,7.32
2022-09-20T04:44:16.998Z,7.33
2022-09-20T04:45:12.396Z,7.35
2022-09-20T04:46:08.174Z,7.36
2022-09-20T04:47:03.302Z,7.37
2022-09-20T04:47:58.488Z,7.39
2022-09-20T04:48:54.743Z,7.41
2022-09-20T04:49:49.941Z,7.41
2022-09-20T04:50:45.835Z,7.41
2022-09-20T04:51:40.982Z,7.45
2022-09-20T04:52:36.202Z,7.46
2022-09-20T04:53:31.931Z,7.46
2022-09-20T04:54:27.132Z,7.45
2022-09-20T04:55:22.873Z,7.46
2022-09-20T04:56:18.026Z,7.47
2022-09-20T04:57:13.363Z,7.48
2022-09-20T04:58:09.211Z,7.49
2022-09-20T04:59:04.396Z,7.48
2022-09-20T04:59:59.697Z,7.46
2022-09-20T05:00:56.029Z,7.49
2022-09-20T05:01:51.270Z,7.52
2022-09-20T05:02:47.006Z,7.57
2022-09-20T05:03:42.151Z,7.60
2022-09-20T05:04:37.307Z,7.65
2022-09-20T05:05:33.198Z,7.67
2022-09-20T05:06:28.362Z,7.71
2022-09-20T05:07:24.330Z,7.77
2022-09-20T05:08:19.501Z,7.80
2022-09-20T05:09:14.793Z,7.82
2022-09-20T05:10:10.563Z,7.85
2022-09-20T05:11:05.783Z,7.87
2022-09-20T05:12:01.139Z,7.87
2022-09-20T05:12:57.358Z,7.89
2022-09-20T05:13:52.587Z,7.90
2022-09-20T05:14:48.408Z,7.98
2022-09-20T05:15:43.607Z,8.03
2022-09-20T05:16:40.783Z,7.99
2022-09-20T05:17:34.333Z,7.94
2022-09-20T05:18:29.640Z,7.90
2022-09-20T05:19:26.088Z,7.91
2022-09-20T05:20:21.328Z,7.94
2022-09-20T05:21:17.097Z,8.01
2022-09-20T05:22:12.320Z,8.02
2022-09-20T05:23:07.609Z,8.00
2022-09-20T05:24:03.322Z,7.99
2022-09-20T05:24:58.582Z,8.00
2022-09-20T05:25:54.527Z,8.00
2022-09-20T05:26:49.664Z,8.01
2022-09-20T05:27:45.073Z,8.01
2022-09-20T05:28:40.933Z,8.02
2022-09-20T05:29:36.238Z,8.04
2022-09-20T05:30:31.623Z,8.04
2022-09-20T05:31:27.922Z,8.03
2022-09-20T05:32:23.166Z,8.04
2022-09-20T05:33:18.571Z,8.04
2022-09-20T05:34:13.723Z,8.04
2022-09-20T05:35:11.278Z,8.02
2022-09-20T05:36:06.507Z,7.98
2022-09-20T05:37:01.560Z,7.92
2022-09-20T05:37:56.603Z,7.90
2022-09-20T05:38:51.853Z,8.27
2022-09-20T05:39:46.952Z,8.45
2022-09-20T05:40:41.936Z,8.60
2022-09-20T05:41:36.950Z,8.67
2022-09-20T05:42:31.975Z,8.58
2022-09-20T05:43:27.176Z,8.58
2022-09-20T05:44:22.060Z,8.68
2022-09-20T05:45:17.059Z,8.79
2022-09-20T05:46:12.162Z,8.79
2022-09-20T05:47:07.149Z,8.78
2022-09-20T05:48:02.146Z,8.90
2022-09-20T05:48:57.381Z,8.99
2022-09-20T05:49:52.535Z,8.93
2022-09-20T05:50:47.513Z,8.81
2022-09-20T05:51:42.567Z,8.75
2022-09-20T05:52:37.635Z,8.66
2022-09-20T05:53:32.830Z,8.61
2022-09-20T05:54:28.855Z,8.55
2022-09-20T05:55:24.228Z,8.51
2022-09-20T05:56:19.557Z,8.50
2022-09-20T05:57:14.887Z,8.50
2022-09-20T05:58:11.732Z,8.50
2022-09-20T05:59:09.690Z,8.50
2022-09-20T06:00:02.496Z,8.50
2022-09-20T06:00:57.959Z,8.50
2022-09-20T06:01:53.442Z,8.44
2022-09-20T06:02:48.861Z,8.43
2022-09-20T06:03:44.232Z,8.43
2022-09-20T06:04:39.582Z,8.41
2022-09-20T06:05:34.982Z,8.38
2022-09-20T06:06:32.568Z,8.35
2022-09-20T06:07:25.671Z,8.36
2022-09-20T06:08:21.108Z,8.38
2022-09-20T06:09:16.467Z,8.44
2022-09-20T06:10:11.979Z,8.50
2022-09-20T06:11:07.236Z,8.57
2022-09-20T06:12:02.634Z,8.60
2022-09-20T06:12:58.067Z,8.62
2022-09-20T06:13:53.439Z,8.63
2022-09-20T06:14:48.511Z,8.65
2022-09-20T06:15:43.612Z,8.73
2022-09-20T06:16:38.858Z,8.80
2022-09-20T06:17:34.129Z,8.83
2022-09-20T06:18:29.099Z,8.81
2022-09-20T06:19:24.105Z,8.81
2022-09-20T06:20:19.234Z,8.80
2022-09-20T06:21:14.275Z,8.80
2022-09-20T06:22:09.379Z,8.78
2022-09-20T06:23:04.378Z,8.77
2022-09-20T06:23:59.487Z,8.76
2022-09-20T06:24:54.613Z,8.71
2022-09-20T06:25:49.719Z,8.71
2022-09-20T06:26:44.691Z,8.73
2022-09-20T06:27:41.613Z,8.73
2022-09-20T06:28:36.985Z,8.72
2022-09-20T06:29:32.349Z,8.74
2022-09-20T06:30:27.855Z,8.76
2022-09-20T06:31:23.225Z,8.73
2022-09-20T06:32:19.416Z,8.75
2022-09-20T06:33:13.968Z,8.80
2022-09-20T06:34:09.284Z,8.83
2022-09-20T06:35:04.727Z,8.82
2022-09-20T06:35:59.893Z,8.85
2022-09-20T06:36:55.211Z,8.85
2022-09-20T06:37:50.623Z,8.87
2022-09-20T06:38:45.987Z,8.91
2022-09-20T06:39:41.375Z,8.95
2022-09-20T06:40:38.178Z,8.96
2022-09-20T06:41:33.566Z,8.98
2022-09-20T06:42:28.942Z,8.98
2022-09-20T06:43:24.221Z,8.98
2022-09-20T06:44:19.698Z,9.00
2022-09-20T06:45:15.069Z,9.04
2022-09-20T06:46:11.712Z,9.04
2022-09-20T06:47:07.071Z,9.04
2022-09-20T06:48:02.498Z,9.07
2022-09-20T06:48:57.919Z,9.11
2022-09-20T06:49:53.284Z,9.13
2022-09-20T06:50:48.431Z,9.13
2022-09-20T06:51:43.531Z,9.17
2022-09-20T06:52:38.626Z,9.21
2022-09-20T06:53:33.796Z,9.24
2022-09-20T06:54:28.766Z,9.25
2022-09-20T06:55:28.453Z,9.27
2022-09-20T06:56:19.911Z,9.28
2022-09-20T06:57:13.995Z,9.29
2022-09-20T06:58:08.930Z,9.33
2022-09-20T06:59:04.036Z,9.35
2022-09-20T07:00:01.299Z,9.35
2022-09-20T07:00:56.738Z,9.36
2022-09-20T07:01:52.105Z,9.40
2022-09-20T07:02:47.515Z,9.43
2022-09-20T07:03:42.857Z,9.46
2022-09-20T07:04:38.355Z,9.50
2022-09-20T07:05:33.632Z,9.53
2022-09-20T07:06:28.982Z,9.56
2022-09-20T07:07:24.377Z,9.59
2022-09-20T07:08:19.793Z,9.62
2022-09-20T07:09:15.135Z,9.65
2022-09-20T07:10:10.551Z,9.65
2022-09-20T07:11:05.950Z,9.66
2022-09-20T07:12:01.338Z,9.70
2022-09-20T07:12:56.761Z,9.73
2022-09-20T07:13:51.814Z,9.76
2022-09-20T07:14:46.912Z,9.80
2022-09-20T07:15:42.044Z,9.81
2022-09-20T07:16:37.246Z,9.85
2022-09-20T07:17:32.261Z,9.87
2022-09-20T07:18:27.386Z,9.85
2022-09-20T07:19:22.401Z,9.86
2022-09-20T07:20:21.187Z,9.83
2022-09-20T07:21:12.698Z,9.80
2022-09-20T07:22:07.689Z,9.83
2022-09-20T07:23:03.758Z,9.82
2022-09-20T07:23:58.882Z,9.80
2022-09-20T07:24:53.889Z,9.78
2022-09-20T07:25:49.145Z,9.81
2022-09-20T07:26:45.080Z,9.85
2022-09-20T07:27:40.649Z,9.92
2022-09-20T07:28:36.038Z,9.97
2022-09-20T07:29:31.501Z,10.03
2022-09-20T07:30:27.148Z,10.09
2022-09-20T07:31:22.809Z,10.20
2022-09-20T07:32:18.075Z,10.32
2022-09-20T07:33:13.721Z,10.43
2022-09-20T07:34:09.202Z,10.51
2022-09-20T07:35:04.675Z,10.59
2022-09-20T07:36:00.362Z,10.66
2022-09-20T07:36:55.876Z,10.89
2022-09-20T07:37:51.353Z,11.05
2022-09-20T07:38:47.023Z,11.10
2022-09-20T07:39:42.117Z,11.19
2022-09-20T07:40:37.225Z,11.25
2022-09-20T07:41:32.220Z,11.30
2022-09-20T07:42:27.292Z,11.28
2022-09-20T07:43:22.654Z,11.30
2022-09-20T07:44:17.752Z,11.28
2022-09-20T07:45:12.826Z,11.28
2022-09-20T07:46:09.447Z,11.25
2022-09-20T07:47:04.422Z,11.23
2022-09-20T07:47:59.476Z,11.27
2022-09-20T07:48:54.601Z,11.29
2022-09-20T07:49:49.741Z,11.34
2022-09-20T07:50:44.809Z,11.43
2022-09-20T07:51:40.076Z,11.49
2022-09-20T07:52:35.549Z,11.52
2022-09-20T07:53:31.139Z,11.50
2022-09-20T07:54:26.685Z,11.50
2022-09-20T07:55:22.184Z,11.50
2022-09-20T07:56:17.786Z,11.46
2022-09-20T07:57:13.157Z,11.47
2022-09-20T07:58:08.642Z,11.51
2022-09-20T07:59:04.248Z,11.53
2022-09-20T07:59:59.687Z,11.52
2022-09-20T08:00:55.190Z,11.47
2022-09-20T08:01:50.747Z,11.41
2022-09-20T08:02:46.372Z,11.39
2022-09-20T08:03:41.833Z,11.40
2022-09-20T08:04:37.378Z,11.42
2022-09-20T08:05:33.006Z,11.42
2022-09-20T08:06:28.472Z,11.44
2022-09-20T08:07:23.976Z,11.50
2022-09-20T08:08:19.611Z,11.55
2022-09-20T08:09:15.117Z,11.61
2022-09-20T08:10:10.624Z,11.69
2022-09-20T08:11:06.111Z,11.69
2022-09-20T08:14:05.284Z,11.71
2022-09-20T08:14:08.806Z,11.62
2022-09-20T08:14:47.472Z,11.48
2022-09-20T08:15:41.461Z,11.51
2022-09-20T08:16:36.717Z,11.55
2022-09-20T08:17:31.689Z,11.61
2022-09-20T08:18:26.773Z,11.67
2022-09-20T08:19:21.774Z,11.74
2022-09-20T08:20:16.856Z,11.80
2022-09-20T08:21:11.949Z,11.85
2022-09-20T08:22:06.944Z,11.93
2022-09-20T08:23:22.371Z,12.09
2022-09-20T08:23:58.115Z,12.18
2022-09-20T08:24:52.572Z,12.27
2022-09-20T08:25:48.098Z,12.35
2022-09-20T08:26:43.598Z,12.38
2022-09-20T08:27:39.079Z,12.31
2022-09-20T08:28:34.538Z,12.26
2022-09-20T08:29:30.067Z,12.24
2022-09-20T08:30:27.636Z,12.22
2022-09-20T08:31:21.120Z,12.19
2022-09-20T08:32:16.465Z,12.17
2022-09-20T08:33:12.071Z,12.14
2022-09-20T08:34:07.569Z,12.04
2022-09-20T08:35:03.055Z,12.00
2022-09-20T08:35:58.573Z,12.05
2022-09-20T08:36:54.072Z,12.13
2022-09-20T08:37:49.724Z,12.19
2022-09-20T08:39:57.919Z,12.15
2022-09-20T08:40:35.823Z,12.19
2022-09-20T08:41:29.929Z,12.24
2022-09-20T08:42:24.879Z,12.32
2022-09-20T08:43:22.272Z,12.42
2022-09-20T08:44:15.108Z,12.46
2022-09-20T08:45:10.226Z,12.52
2022-09-20T08:46:05.904Z,12.53
2022-09-20T08:47:01.025Z,12.52
2022-09-20T08:47:58.690Z,12.49
2022-09-20T08:48:52.049Z,12.54
2022-09-20T08:49:56.413Z,12.54
2022-09-20T08:50:47.192Z,12.51
2022-09-20T08:51:42.041Z,12.54
2022-09-20T08:52:37.584Z,12.53
2022-09-20T08:53:33.061Z,12.51
2022-09-20T08:54:32.134Z,12.51
2022-09-20T08:55:25.405Z,12.55
2022-09-20T08:56:20.876Z,12.58
2022-09-20T08:57:16.395Z,12.65
2022-09-20T08:58:11.778Z,12.63
2022-09-20T08:59:07.433Z,12.67
2022-09-20T09:00:02.954Z,12.75
2022-09-20T09:00:58.591Z,12.80
2022-09-20T09:01:54.192Z,12.79
2022-09-20T09:02:49.593Z,12.86
2022-09-20T09:03:45.156Z,13.00
2022-09-20T09:04:40.655Z,13.12
2022-09-20T09:05:36.047Z,13.20
2022-09-20T09:06:31.543Z,13.22
2022-09-20T09:07:30.433Z,13.11
2022-09-20T09:08:25.898Z,13.07
2022-09-20T09:09:21.366Z,13.03
2022-09-20T09:10:17.076Z,12.99
2022-09-20T09:11:12.531Z,12.95
2022-09-20T09:12:08.020Z,12.91
2022-09-20T09:13:03.540Z,12.92
2022-09-20T09:13:59.019Z,12.91
2022-09-20T09:14:54.612Z,12.92
2022-09-20T09:15:50.127Z,12.88
2022-09-20T09:16:45.598Z,12.88
2022-09-20T09:17:41.092Z,12.96
2022-09-20T09:18:36.517Z,13.14
2022-09-20T09:19:33.642Z,13.36
2022-09-20T09:20:27.754Z,13.50
2022-09-20T09:21:22.760Z,13.58
2022-09-20T09:22:17.876Z,13.92
2022-09-20T09:23:12.900Z,14.10
2022-09-20T09:24:08.029Z,14.22
2022-09-20T09:25:03.149Z,14.41
2022-09-20T09:25:58.017Z,14.56
2022-09-20T09:26:53.005Z,14.64
2022-09-20T09:27:48.106Z,14.62
2022-09-20T09:28:43.188Z,14.54
2022-09-20T09:29:38.146Z,14.49
2022-09-20T09:30:34.535Z,14.65
2022-09-20T09:31:29.701Z,14.96
2022-09-20T09:32:24.721Z,15.27
2022-09-20T09:33:19.727Z,15.65
2022-09-20T09:34:15.797Z,15.98
2022-09-20T09:35:11.387Z,16.19
2022-09-20T09:36:06.802Z,16.43
2022-09-20T09:37:02.190Z,16.68
2022-09-20T09:37:57.612Z,16.90
2022-09-20T09:38:53.110Z,17.13
2022-09-20T09:39:48.579Z,17.32
2022-09-20T09:40:44.110Z,17.24
2022-09-20T09:41:39.364Z,17.00
2022-09-20T09:42:34.761Z,16.50
2022-09-20T09:43:30.250Z,16.01
2022-09-20T09:44:25.724Z,15.66
2022-09-20T09:45:21.206Z,15.34
2022-09-20T09:46:16.853Z,15.19
2022-09-20T09:47:11.870Z,15.12
2022-09-20T09:48:06.882Z,15.21
2022-09-20T09:49:01.999Z,15.08
2022-09-20T09:50:00.285Z,14.81
2022-09-20T09:50:52.199Z,14.58
2022-09-20T09:51:47.252Z,14.44
2022-09-20T09:52:42.334Z,14.36
2022-09-20T09:53:38.686Z,14.63
2022-09-20T09:54:33.823Z,15.05
2022-09-20T09:55:28.887Z,15.44
2022-09-20T09:56:23.995Z,15.85
2022-09-20T09:57:19.415Z,16.22
2022-09-20T09:58:14.876Z,16.36
2022-09-20T09:59:10.236Z,16.63
2022-09-20T10:00:11.106Z,16.91
2022-09-20T10:01:02.614Z,17.20
2022-09-20T10:01:57.028Z,17.27
2022-09-20T10:02:52.351Z,17.37
2022-09-20T10:03:47.836Z,17.44
2022-09-20T10:04:43.331Z,17.55
2022-09-20T10:05:38.825Z,17.35
2022-09-20T10:06:35.458Z,17.04
2022-09-20T10:07:30.894Z,16.69
2022-09-20T10:08:26.344Z,16.69
2022-09-20T10:09:21.698Z,16.55
2022-09-20T10:10:17.288Z,16.62
2022-09-20T10:11:12.889Z,16.86
2022-09-20T10:12:08.248Z,17.10
2022-09-20T10:13:03.811Z,17.38
2022-09-20T10:13:59.434Z,17.60
2022-09-20T10:14:54.792Z,17.93
2022-09-20T10:15:50.256Z,17.94
2022-09-20T10:16:45.779Z,18.16
2022-09-20T10:17:41.105Z,18.39
2022-09-20T10:18:36.604Z,18.55
2022-09-20T10:19:31.634Z,18.37
2022-09-20T10:20:26.783Z,18.02
2022-09-20T10:21:21.755Z,17.65
2022-09-20T10:22:16.741Z,17.25
2022-09-20T10:23:51.471Z,16.86
2022-09-20T10:24:07.863Z,17.01
2022-09-20T10:25:01.904Z,16.76
2022-09-20T10:25:56.960Z,16.49
2022-09-20T10:26:52.081Z,16.26
2022-09-20T10:27:47.084Z,15.99
2022-09-20T10:28:42.099Z,15.63
2022-09-20T10:29:37.125Z,15.47
2022-09-20T10:30:32.192Z,15.51
2022-09-20T10:31:27.301Z,15.42
2022-09-20T10:32:22.315Z,15.49
2022-09-20T10:33:17.376Z,15.99
2022-09-20T10:34:12.422Z,16.10
2022-09-20T10:35:07.518Z,16.25
2022-09-20T10:36:02.680Z,16.67
2022-09-20T10:36:57.732Z,17.14
2022-09-20T10:37:52.801Z,17.68
2022-09-20T10:38:47.858Z,18.15
2022-09-20T10:39:42.895Z,18.62
2022-09-20T10:40:37.958Z,18.91
2022-09-20T10:41:33.001Z,19.02
2022-09-20T10:42:28.597Z,18.92
2022-09-20T10:43:24.062Z,18.84
2022-09-20T10:44:19.512Z,18.41
2022-09-20T10:45:29.006Z,18.06
2022-09-20T10:46:31.345Z,17.81
2022-09-20T10:47:06.840Z,17.74
2022-09-20T10:48:03.285Z,17.72
2022-09-20T10:48:58.708Z,17.30
2022-09-20T10:49:54.130Z,17.01
2022-09-20T10:50:49.552Z,16.78
2022-09-20T10:51:45.084Z,16.61
2022-09-20T10:52:40.550Z,16.57
2022-09-20T10:53:36.015Z,16.74
2022-09-20T10:54:31.301Z,16.52
2022-09-20T10:55:27.241Z,16.29
2022-09-20T10:56:22.670Z,16.17
2022-09-20T10:57:18.191Z,16.54
2022-09-20T10:58:13.638Z,16.73
2022-09-20T10:59:09.214Z,16.61
2022-09-20T11:00:04.692Z,16.83
2022-09-20T11:01:00.167Z,16.86
2022-09-20T11:01:55.755Z,16.57
2022-09-20T11:02:51.046Z,16.30
2022-09-20T11:03:46.577Z,16.09
2022-09-20T11:04:41.992Z,15.96
2022-09-20T11:05:37.380Z,15.67
2022-09-20T11:06:32.909Z,15.47
2022-09-20T11:07:28.453Z,15.32
2022-09-20T11:08:27.817Z,15.16
2022-09-20T11:09:23.342Z,15.04
2022-09-20T11:10:19.013Z,14.94
2022-09-20T11:11:14.440Z,14.87
2022-09-20T11:12:09.812Z,14.72
2022-09-20T11:13:05.350Z,14.62
2022-09-20T11:14:00.817Z,14.66
2022-09-20T11:14:56.228Z,14.77
2022-09-20T11:15:51.660Z,15.05
2022-09-20T11:16:47.234Z,15.59
2022-09-20T11:17:42.579Z,15.54
2022-09-20T11:18:38.020Z,15.70
2022-09-20T11:19:33.358Z,15.86
2022-09-20T11:20:28.806Z,16.10
2022-09-20T11:21:24.298Z,16.66
2022-09-20T11:22:19.349Z,17.01
2022-09-20T11:23:14.359Z,17.08
2022-09-20T11:24:09.376Z,16.71
2022-09-20T11:25:04.416Z,16.65
2022-09-20T11:25:59.467Z,16.60
2022-09-20T11:26:54.479Z,16.34
2022-09-20T11:27:49.526Z,16.08
2022-09-20T11:28:44.539Z,15.83
2022-09-20T11:29:39.650Z,15.66
2022-09-20T11:30:34.768Z,15.57
2022-09-20T11:31:31.967Z,15.52
2022-09-20T11:32:26.973Z,15.48
2022-09-20T11:33:22.046Z,15.54
2022-09-20T11:34:17.130Z,15.57
2022-09-20T11:35:13.332Z,15.48
2022-09-20T11:36:08.763Z,15.48
2022-09-20T11:37:04.255Z,15.72
2022-09-20T11:37:59.741Z,16.33
2022-09-20T11:38:55.203Z,16.89
2022-09-20T11:39:50.514Z,17.42
2022-09-20T11:40:46.006Z,17.88
2022-09-20T11:41:41.364Z,18.29
2022-09-20T11:42:36.817Z,18.30
2022-09-20T11:43:32.275Z,18.09
2022-09-20T11:44:27.770Z,17.73
2022-09-20T11:45:28.141Z,17.39
2022-09-20T11:46:19.736Z,17.09
2022-09-20T11:47:15.530Z,17.20
2022-09-20T11:48:10.002Z,17.47
2022-09-20T11:49:04.113Z,17.23
2022-09-20T11:49:59.170Z,17.36
2022-09-20T11:50:54.221Z,17.27
2022-09-20T11:51:49.283Z,17.49
2022-09-20T11:52:44.292Z,17.73
2022-09-20T11:53:39.321Z,17.95
2022-09-20T11:54:37.084Z,18.12
2022-09-20T11:55:32.102Z,18.36
2022-09-20T11:56:27.213Z,18.36
2022-09-20T11:57:22.257Z,18.29
2022-09-20T11:58:17.271Z,17.83
2022-09-20T11:59:12.327Z,17.49
2022-09-20T12:00:07.786Z,17.37
2022-09-20T12:01:03.249Z,17.37
2022-09-20T12:01:58.738Z,17.45
2022-09-20T12:02:54.278Z,17.55
2022-09-20T12:03:49.661Z,17.64
2022-09-20T12:04:45.256Z,17.41
2022-09-20T12:05:40.653Z,17.25
2022-09-20T12:06:36.081Z,17.05
2022-09-20T12:07:31.783Z,16.88
2022-09-20T12:08:27.209Z,16.81
2022-09-20T12:09:22.667Z,16.80